sensor_id;sensor_type;location;lat;lon;timestamp;P1;durP1;ratioP1;P2;durP2;ratioP2
22068;SDS011;13887;57.196;-2.100;2023-06-22T00:00:36;11.07;;;10.77;;
22068;SDS011;13887;57.196;-2.100;2023-06-22T00:03:10;12.00;;;11.60;;
22068;SDS011;13887;57.196;-2.100;2023-06-22T00:05:46;11.60;;;11.20;;
22068;SDS011;13887;57.196;-2.100;2023-06-22T00:08:14;11.67;;;11.27;;
22068;SDS011;13887;57.196;-2.100;2023-06-22T00:10:49;11.63;;;11.23;;
22068;SDS011;13887;57.196;-2.100;2023-06-22T00:13:16;12.07;;;11.67;;
22068;SDS011;13887;57.196;-2.100;2023-06-22T00:15:49;11.77;;;11.37;;
22068;SDS011;13887;57.196;-2.100;2023-06-22T00:18:19;11.77;;;11.37;;
22068;SDS011;13887;57.196;-2.100;2023-06-22T00:20:48;11.80;;;11.40;;
22068;SDS011;13887;57.196;-2.100;2023-06-22T00:23:15;12.07;;;11.67;;
22068;SDS011;13887;57.196;-2.100;2023-06-22T00:25:44;11.97;;;11.57;;
22068;SDS011;13887;57.196;-2.100;2023-06-22T00:28:14;11.83;;;11.43;;
22068;SDS011;13887;57.196;-2.100;2023-06-22T00:30:48;11.70;;;11.30;;
22068;SDS011;13887;57.196;-2.100;2023-06-22T00:33:27;11.80;;;11.40;;
22068;SDS011;13887;57.196;-2.100;2023-06-22T00:35:55;11.43;;;11.03;;
22068;SDS011;13887;57.196;-2.100;2023-06-22T00:38:25;11.60;;;11.20;;
22068;SDS011;13887;57.196;-2.100;2023-06-22T00:40:53;11.90;;;11.50;;
22068;SDS011;13887;57.196;-2.100;2023-06-22T00:43:23;11.73;;;11.33;;
22068;SDS011;13887;57.196;-2.100;2023-06-22T00:45:50;11.93;;;11.53;;
22068;SDS011;13887;57.196;-2.100;2023-06-22T00:48:20;11.20;;;10.90;;
22068;SDS011;13887;57.196;-2.100;2023-06-22T00:51:01;11.60;;;11.20;;
22068;SDS011;13887;57.196;-2.100;2023-06-22T00:53:34;11.87;;;11.47;;
22068;SDS011;13887;57.196;-2.100;2023-06-22T00:56:02;11.53;;;11.13;;
22068;SDS011;13887;57.196;-2.100;2023-06-22T00:58:36;11.30;;;10.93;;
22068;SDS011;13887;57.196;-2.100;2023-06-22T01:01:14;11.87;;;11.47;;
22068;SDS011;13887;57.196;-2.100;2023-06-22T01:03:47;11.80;;;11.40;;
22068;SDS011;13887;57.196;-2.100;2023-06-22T01:06:22;11.83;;;11.43;;
22068;SDS011;13887;57.196;-2.100;2023-06-22T01:08:59;12.00;;;11.60;;
22068;SDS011;13887;57.196;-2.100;2023-06-22T01:11:37;11.60;;;11.20;;
22068;SDS011;13887;57.196;-2.100;2023-06-22T01:14:11;11.50;;;11.10;;
22068;SDS011;13887;57.196;-2.100;2023-06-22T01:16:44;11.87;;;11.47;;
22068;SDS011;13887;57.196;-2.100;2023-06-22T01:22:01;11.70;;;11.30;;
22068;SDS011;13887;57.196;-2.100;2023-06-22T01:24:57;11.87;;;11.47;;
22068;SDS011;13887;57.196;-2.100;2023-06-22T01:27:39;11.73;;;11.33;;
22068;SDS011;13887;57.196;-2.100;2023-06-22T01:30:23;11.77;;;11.37;;
22068;SDS011;13887;57.196;-2.100;2023-06-22T01:32:57;11.40;;;11.00;;
22068;SDS011;13887;57.196;-2.100;2023-06-22T01:35:32;11.90;;;11.50;;
22068;SDS011;13887;57.196;-2.100;2023-06-22T01:38:00;11.70;;;11.30;;
22068;SDS011;13887;57.196;-2.100;2023-06-22T01:40:35;11.17;;;10.87;;
22068;SDS011;13887;57.196;-2.100;2023-06-22T01:43:08;11.13;;;10.83;;
22068;SDS011;13887;57.196;-2.100;2023-06-22T01:45:39;11.57;;;11.17;;
22068;SDS011;13887;57.196;-2.100;2023-06-22T01:48:09;11.40;;;11.00;;
22068;SDS011;13887;57.196;-2.100;2023-06-22T01:50:37;11.60;;;11.20;;
22068;SDS011;13887;57.196;-2.100;2023-06-22T01:53:07;11.20;;;10.90;;
22068;SDS011;13887;57.196;-2.100;2023-06-22T01:55:36;11.60;;;11.20;;
22068;SDS011;13887;57.196;-2.100;2023-06-22T01:58:13;11.47;;;11.07;;
22068;SDS011;13887;57.196;-2.100;2023-06-22T02:00:43;11.40;;;11.00;;
22068;SDS011;13887;57.196;-2.100;2023-06-22T02:03:17;11.47;;;11.07;;
22068;SDS011;13887;57.196;-2.100;2023-06-22T02:05:55;11.57;;;11.17;;
22068;SDS011;13887;57.196;-2.100;2023-06-22T02:08:29;11.40;;;11.00;;
22068;SDS011;13887;57.196;-2.100;2023-06-22T02:11:02;11.40;;;11.03;;
22068;SDS011;13887;57.196;-2.100;2023-06-22T02:13:36;11.20;;;10.90;;
22068;SDS011;13887;57.196;-2.100;2023-06-22T02:16:05;11.30;;;11.00;;
22068;SDS011;13887;57.196;-2.100;2023-06-22T02:18:32;11.80;;;11.40;;
22068;SDS011;13887;57.196;-2.100;2023-06-22T02:21:06;11.80;;;11.40;;
22068;SDS011;13887;57.196;-2.100;2023-06-22T02:23:40;11.70;;;11.30;;
22068;SDS011;13887;57.196;-2.100;2023-06-22T02:26:25;11.53;;;11.13;;
22068;SDS011;13887;57.196;-2.100;2023-06-22T02:28:54;11.67;;;11.27;;
22068;SDS011;13887;57.196;-2.100;2023-06-22T02:31:31;11.87;;;11.47;;
22068;SDS011;13887;57.196;-2.100;2023-06-22T02:33:59;11.80;;;11.40;;
22068;SDS011;13887;57.196;-2.100;2023-06-22T02:36:32;11.70;;;11.30;;
22068;SDS011;13887;57.196;-2.100;2023-06-22T02:39:08;12.00;;;11.60;;
22068;SDS011;13887;57.196;-2.100;2023-06-22T02:41:37;11.63;;;11.23;;
22068;SDS011;13887;57.196;-2.100;2023-06-22T02:44:08;12.30;;;11.90;;
22068;SDS011;13887;57.196;-2.100;2023-06-22T02:46:35;11.80;;;11.40;;
22068;SDS011;13887;57.196;-2.100;2023-06-22T02:49:05;11.97;;;11.57;;
22068;SDS011;13887;57.196;-2.100;2023-06-22T02:51:33;12.13;;;11.73;;
22068;SDS011;13887;57.196;-2.100;2023-06-22T02:54:01;11.83;;;11.43;;
22068;SDS011;13887;57.196;-2.100;2023-06-22T02:56:37;12.07;;;11.67;;
22068;SDS011;13887;57.196;-2.100;2023-06-22T02:59:07;12.33;;;11.93;;
22068;SDS011;13887;57.196;-2.100;2023-06-22T03:01:38;12.40;;;12.00;;
22068;SDS011;13887;57.196;-2.100;2023-06-22T03:04:22;12.57;;;12.17;;
22068;SDS011;13887;57.196;-2.100;2023-06-22T03:06:52;12.00;;;11.60;;
22068;SDS011;13887;57.196;-2.100;2023-06-22T03:09:24;12.60;;;12.20;;
22068;SDS011;13887;57.196;-2.100;2023-06-22T03:11:56;12.43;;;12.03;;
22068;SDS011;13887;57.196;-2.100;2023-06-22T03:14:34;12.40;;;12.00;;
22068;SDS011;13887;57.196;-2.100;2023-06-22T03:17:07;12.47;;;12.07;;
22068;SDS011;13887;57.196;-2.100;2023-06-22T03:19:39;12.60;;;12.20;;
22068;SDS011;13887;57.196;-2.100;2023-06-22T03:22:06;12.77;;;12.37;;
22068;SDS011;13887;57.196;-2.100;2023-06-22T03:24:40;12.70;;;12.30;;
22068;SDS011;13887;57.196;-2.100;2023-06-22T03:27:08;12.73;;;12.33;;
22068;SDS011;13887;57.196;-2.100;2023-06-22T03:29:41;12.60;;;12.20;;
22068;SDS011;13887;57.196;-2.100;2023-06-22T03:32:11;12.20;;;11.80;;
22068;SDS011;13887;57.196;-2.100;2023-06-22T03:34:44;12.33;;;11.93;;
22068;SDS011;13887;57.196;-2.100;2023-06-22T03:37:15;12.47;;;12.07;;
22068;SDS011;13887;57.196;-2.100;2023-06-22T03:39:43;13.17;;;12.70;;
22068;SDS011;13887;57.196;-2.100;2023-06-22T03:42:11;12.23;;;11.83;;
22068;SDS011;13887;57.196;-2.100;2023-06-22T03:44:39;12.63;;;12.23;;
22068;SDS011;13887;57.196;-2.100;2023-06-22T03:47:06;12.37;;;11.97;;
22068;SDS011;13887;57.196;-2.100;2023-06-22T03:49:39;12.80;;;12.40;;
22068;SDS011;13887;57.196;-2.100;2023-06-22T03:52:06;12.57;;;12.17;;
22068;SDS011;13887;57.196;-2.100;2023-06-22T03:54:37;12.30;;;11.90;;
22068;SDS011;13887;57.196;-2.100;2023-06-22T03:57:10;12.73;;;12.33;;
22068;SDS011;13887;57.196;-2.100;2023-06-22T03:59:37;12.57;;;12.17;;
22068;SDS011;13887;57.196;-2.100;2023-06-22T04:02:08;12.10;;;11.70;;
22068;SDS011;13887;57.196;-2.100;2023-06-22T04:04:35;12.67;;;12.27;;
22068;SDS011;13887;57.196;-2.100;2023-06-22T04:07:08;12.50;;;12.10;;
22068;SDS011;13887;57.196;-2.100;2023-06-22T04:09:41;13.10;;;12.70;;
22068;SDS011;13887;57.196;-2.100;2023-06-22T04:12:09;13.03;;;12.63;;
22068;SDS011;13887;57.196;-2.100;2023-06-22T04:14:39;12.90;;;12.50;;
22068;SDS011;13887;57.196;-2.100;2023-06-22T04:17:11;12.47;;;12.07;;
22068;SDS011;13887;57.196;-2.100;2023-06-22T04:19:42;12.77;;;12.37;;
22068;SDS011;13887;57.196;-2.100;2023-06-22T04:22:13;12.60;;;12.20;;
22068;SDS011;13887;57.196;-2.100;2023-06-22T04:24:40;12.80;;;12.40;;
22068;SDS011;13887;57.196;-2.100;2023-06-22T04:27:11;12.50;;;12.10;;
22068;SDS011;13887;57.196;-2.100;2023-06-22T04:29:46;12.80;;;12.40;;
22068;SDS011;13887;57.196;-2.100;2023-06-22T04:32:20;12.80;;;12.40;;
22068;SDS011;13887;57.196;-2.100;2023-06-22T04:34:49;12.90;;;12.50;;
22068;SDS011;13887;57.196;-2.100;2023-06-22T04:37:22;12.17;;;11.77;;
22068;SDS011;13887;57.196;-2.100;2023-06-22T04:39:53;12.30;;;11.90;;
22068;SDS011;13887;57.196;-2.100;2023-06-22T04:42:26;12.60;;;12.20;;
22068;SDS011;13887;57.196;-2.100;2023-06-22T04:44:57;12.63;;;12.23;;
22068;SDS011;13887;57.196;-2.100;2023-06-22T04:47:27;12.80;;;12.40;;
22068;SDS011;13887;57.196;-2.100;2023-06-22T04:49:57;12.57;;;12.17;;
22068;SDS011;13887;57.196;-2.100;2023-06-22T04:52:27;12.70;;;12.30;;
22068;SDS011;13887;57.196;-2.100;2023-06-22T04:54:57;12.80;;;12.40;;
22068;SDS011;13887;57.196;-2.100;2023-06-22T04:57:27;12.77;;;12.37;;
22068;SDS011;13887;57.196;-2.100;2023-06-22T05:00:00;13.10;;;12.70;;
22068;SDS011;13887;57.196;-2.100;2023-06-22T05:02:34;12.93;;;12.53;;
22068;SDS011;13887;57.196;-2.100;2023-06-22T05:05:06;13.13;;;12.73;;
22068;SDS011;13887;57.196;-2.100;2023-06-22T05:07:34;13.17;;;12.77;;
22068;SDS011;13887;57.196;-2.100;2023-06-22T05:10:05;13.47;;;12.97;;
22068;SDS011;13887;57.196;-2.100;2023-06-22T05:12:32;13.50;;;13.00;;
22068;SDS011;13887;57.196;-2.100;2023-06-22T05:15:00;13.10;;;12.70;;
22068;SDS011;13887;57.196;-2.100;2023-06-22T05:17:28;13.47;;;12.97;;
22068;SDS011;13887;57.196;-2.100;2023-06-22T05:19:58;13.00;;;12.60;;
22068;SDS011;13887;57.196;-2.100;2023-06-22T05:22:32;13.10;;;12.70;;
22068;SDS011;13887;57.196;-2.100;2023-06-22T05:25:01;13.60;;;13.10;;
22068;SDS011;13887;57.196;-2.100;2023-06-22T05:27:34;13.33;;;12.83;;
22068;SDS011;13887;57.196;-2.100;2023-06-22T05:30:06;13.60;;;13.10;;
22068;SDS011;13887;57.196;-2.100;2023-06-22T05:32:37;13.60;;;13.10;;
22068;SDS011;13887;57.196;-2.100;2023-06-22T05:35:07;13.80;;;13.30;;
22068;SDS011;13887;57.196;-2.100;2023-06-22T05:37:42;12.97;;;12.57;;
22068;SDS011;13887;57.196;-2.100;2023-06-22T05:40:21;13.13;;;12.73;;
22068;SDS011;13887;57.196;-2.100;2023-06-22T05:42:49;13.47;;;12.97;;
22068;SDS011;13887;57.196;-2.100;2023-06-22T05:45:16;13.03;;;12.63;;
22068;SDS011;13887;57.196;-2.100;2023-06-22T05:47:46;12.50;;;12.10;;
22068;SDS011;13887;57.196;-2.100;2023-06-22T05:50:29;12.70;;;12.30;;
22068;SDS011;13887;57.196;-2.100;2023-06-22T05:53:05;12.70;;;12.30;;
22068;SDS011;13887;57.196;-2.100;2023-06-22T05:55:33;12.87;;;12.47;;
22068;SDS011;13887;57.196;-2.100;2023-06-22T05:58:04;12.67;;;12.27;;
22068;SDS011;13887;57.196;-2.100;2023-06-22T06:00:31;13.13;;;12.73;;
22068;SDS011;13887;57.196;-2.100;2023-06-22T06:03:02;12.97;;;12.57;;
22068;SDS011;13887;57.196;-2.100;2023-06-22T06:05:35;13.07;;;12.67;;
22068;SDS011;13887;57.196;-2.100;2023-06-22T06:08:08;13.63;;;13.13;;
22068;SDS011;13887;57.196;-2.100;2023-06-22T06:10:37;13.10;;;12.70;;
22068;SDS011;13887;57.196;-2.100;2023-06-22T06:13:05;12.80;;;12.40;;
22068;SDS011;13887;57.196;-2.100;2023-06-22T06:15:37;12.80;;;12.40;;
22068;SDS011;13887;57.196;-2.100;2023-06-22T06:18:10;12.40;;;12.00;;
22068;SDS011;13887;57.196;-2.100;2023-06-22T06:20:41;12.83;;;12.43;;
22068;SDS011;13887;57.196;-2.100;2023-06-22T06:23:18;13.03;;;12.63;;
22068;SDS011;13887;57.196;-2.100;2023-06-22T06:25:50;13.00;;;12.60;;
22068;SDS011;13887;57.196;-2.100;2023-06-22T06:28:17;13.17;;;12.77;;
22068;SDS011;13887;57.196;-2.100;2023-06-22T06:30:48;12.97;;;12.57;;
22068;SDS011;13887;57.196;-2.100;2023-06-22T06:33:18;13.27;;;12.87;;
22068;SDS011;13887;57.196;-2.100;2023-06-22T06:35:53;13.37;;;12.87;;
22068;SDS011;13887;57.196;-2.100;2023-06-22T06:38:22;13.10;;;12.70;;
22068;SDS011;13887;57.196;-2.100;2023-06-22T06:40:55;13.20;;;12.80;;
22068;SDS011;13887;57.196;-2.100;2023-06-22T06:43:25;13.77;;;13.27;;
22068;SDS011;13887;57.196;-2.100;2023-06-22T06:45:52;12.87;;;12.47;;
22068;SDS011;13887;57.196;-2.100;2023-06-22T06:48:22;13.10;;;12.70;;
22068;SDS011;13887;57.196;-2.100;2023-06-22T06:50:57;13.30;;;12.87;;
22068;SDS011;13887;57.196;-2.100;2023-06-22T06:53:28;12.63;;;12.23;;
22068;SDS011;13887;57.196;-2.100;2023-06-22T06:55:55;12.93;;;12.53;;
22068;SDS011;13887;57.196;-2.100;2023-06-22T06:58:23;12.87;;;12.47;;
22068;SDS011;13887;57.196;-2.100;2023-06-22T07:00:56;13.07;;;12.67;;
22068;SDS011;13887;57.196;-2.100;2023-06-22T07:03:24;12.83;;;12.43;;
22068;SDS011;13887;57.196;-2.100;2023-06-22T07:05:51;12.90;;;12.50;;
22068;SDS011;13887;57.196;-2.100;2023-06-22T07:08:20;12.80;;;12.40;;
22068;SDS011;13887;57.196;-2.100;2023-06-22T07:10:47;12.23;;;11.83;;
22068;SDS011;13887;57.196;-2.100;2023-06-22T07:13:15;13.00;;;12.60;;
22068;SDS011;13887;57.196;-2.100;2023-06-22T07:15:46;13.07;;;12.67;;
22068;SDS011;13887;57.196;-2.100;2023-06-22T07:18:14;13.00;;;12.60;;
22068;SDS011;13887;57.196;-2.100;2023-06-22T07:20:44;13.00;;;12.60;;
22068;SDS011;13887;57.196;-2.100;2023-06-22T07:23:19;13.10;;;12.70;;
22068;SDS011;13887;57.196;-2.100;2023-06-22T07:25:49;13.50;;;13.00;;
22068;SDS011;13887;57.196;-2.100;2023-06-22T07:28:20;13.73;;;13.23;;
22068;SDS011;13887;57.196;-2.100;2023-06-22T07:30:50;13.33;;;12.83;;
22068;SDS011;13887;57.196;-2.100;2023-06-22T07:33:21;13.17;;;12.77;;
22068;SDS011;13887;57.196;-2.100;2023-06-22T07:35:55;12.77;;;12.37;;
22068;SDS011;13887;57.196;-2.100;2023-06-22T07:38:22;13.13;;;12.73;;
22068;SDS011;13887;57.196;-2.100;2023-06-22T07:40:53;13.47;;;12.97;;
22068;SDS011;13887;57.196;-2.100;2023-06-22T07:43:32;13.60;;;13.10;;
22068;SDS011;13887;57.196;-2.100;2023-06-22T07:46:01;13.20;;;12.80;;
22068;SDS011;13887;57.196;-2.100;2023-06-22T07:48:30;13.57;;;13.07;;
22068;SDS011;13887;57.196;-2.100;2023-06-22T07:50:58;13.03;;;12.63;;
22068;SDS011;13887;57.196;-2.100;2023-06-22T07:53:33;13.00;;;12.60;;
22068;SDS011;13887;57.196;-2.100;2023-06-22T07:56:03;13.10;;;12.70;;
22068;SDS011;13887;57.196;-2.100;2023-06-22T07:58:37;13.60;;;13.10;;
22068;SDS011;13887;57.196;-2.100;2023-06-22T08:01:05;12.63;;;12.23;;
22068;SDS011;13887;57.196;-2.100;2023-06-22T08:03:36;13.10;;;12.70;;
22068;SDS011;13887;57.196;-2.100;2023-06-22T08:06:07;13.40;;;12.90;;
22068;SDS011;13887;57.196;-2.100;2023-06-22T08:08:38;12.73;;;12.33;;
22068;SDS011;13887;57.196;-2.100;2023-06-22T08:11:12;13.50;;;13.00;;
22068;SDS011;13887;57.196;-2.100;2023-06-22T08:13:41;13.57;;;13.07;;
22068;SDS011;13887;57.196;-2.100;2023-06-22T08:16:11;12.83;;;12.43;;
22068;SDS011;13887;57.196;-2.100;2023-06-22T08:18:42;13.20;;;12.80;;
22068;SDS011;13887;57.196;-2.100;2023-06-22T08:21:10;13.07;;;12.67;;
22068;SDS011;13887;57.196;-2.100;2023-06-22T08:23:40;12.70;;;12.30;;
22068;SDS011;13887;57.196;-2.100;2023-06-22T08:26:12;13.50;;;13.00;;
22068;SDS011;13887;57.196;-2.100;2023-06-22T08:28:41;12.93;;;12.53;;
22068;SDS011;13887;57.196;-2.100;2023-06-22T08:31:08;13.10;;;12.70;;
22068;SDS011;13887;57.196;-2.100;2023-06-22T08:33:43;13.70;;;13.20;;
22068;SDS011;13887;57.196;-2.100;2023-06-22T08:36:15;13.60;;;13.10;;
22068;SDS011;13887;57.196;-2.100;2023-06-22T08:38:45;12.60;;;12.20;;
22068;SDS011;13887;57.196;-2.100;2023-06-22T08:41:17;12.83;;;12.43;;
22068;SDS011;13887;57.196;-2.100;2023-06-22T08:43:47;13.30;;;12.80;;
22068;SDS011;13887;57.196;-2.100;2023-06-22T08:46:14;12.97;;;12.57;;
22068;SDS011;13887;57.196;-2.100;2023-06-22T08:48:47;12.97;;;12.57;;
22068;SDS011;13887;57.196;-2.100;2023-06-22T08:51:17;13.43;;;12.93;;
22068;SDS011;13887;57.196;-2.100;2023-06-22T08:54:02;13.00;;;12.60;;
22068;SDS011;13887;57.196;-2.100;2023-06-22T08:56:31;13.03;;;12.63;;
22068;SDS011;13887;57.196;-2.100;2023-06-22T08:59:00;13.40;;;12.90;;
22068;SDS011;13887;57.196;-2.100;2023-06-22T09:01:31;13.13;;;12.70;;
22068;SDS011;13887;57.196;-2.100;2023-06-22T09:04:01;12.87;;;12.47;;
22068;SDS011;13887;57.196;-2.100;2023-06-22T09:06:29;12.60;;;12.20;;
22068;SDS011;13887;57.196;-2.100;2023-06-22T09:09:01;13.40;;;12.90;;
22068;SDS011;13887;57.196;-2.100;2023-06-22T09:11:29;13.50;;;13.00;;
22068;SDS011;13887;57.196;-2.100;2023-06-22T09:13:56;12.83;;;12.43;;
22068;SDS011;13887;57.196;-2.100;2023-06-22T09:16:26;13.70;;;13.20;;
22068;SDS011;13887;57.196;-2.100;2023-06-22T09:18:59;13.50;;;13.00;;
22068;SDS011;13887;57.196;-2.100;2023-06-22T09:21:34;13.20;;;12.77;;
22068;SDS011;13887;57.196;-2.100;2023-06-22T09:24:12;13.00;;;12.60;;
22068;SDS011;13887;57.196;-2.100;2023-06-22T09:26:42;13.47;;;12.97;;
22068;SDS011;13887;57.196;-2.100;2023-06-22T09:29:10;13.60;;;13.10;;
22068;SDS011;13887;57.196;-2.100;2023-06-22T09:31:40;13.23;;;12.77;;
22068;SDS011;13887;57.196;-2.100;2023-06-22T09:34:11;12.57;;;12.17;;
22068;SDS011;13887;57.196;-2.100;2023-06-22T09:36:44;12.90;;;12.50;;
22068;SDS011;13887;57.196;-2.100;2023-06-22T09:39:14;13.00;;;12.60;;
22068;SDS011;13887;57.196;-2.100;2023-06-22T09:41:44;12.83;;;12.43;;
22068;SDS011;13887;57.196;-2.100;2023-06-22T09:44:14;12.87;;;12.47;;
22068;SDS011;13887;57.196;-2.100;2023-06-22T09:46:42;12.83;;;12.43;;
22068;SDS011;13887;57.196;-2.100;2023-06-22T09:49:11;12.90;;;12.50;;
22068;SDS011;13887;57.196;-2.100;2023-06-22T09:51:39;14.00;;;13.50;;
22068;SDS011;13887;57.196;-2.100;2023-06-22T09:54:07;13.97;;;13.47;;
22068;SDS011;13887;57.196;-2.100;2023-06-22T09:56:48;14.30;;;13.80;;
22068;SDS011;13887;57.196;-2.100;2023-06-22T09:59:15;14.40;;;13.90;;
22068;SDS011;13887;57.196;-2.100;2023-06-22T10:01:45;14.27;;;13.77;;
22068;SDS011;13887;57.196;-2.100;2023-06-22T10:04:19;13.70;;;13.20;;
22068;SDS011;13887;57.196;-2.100;2023-06-22T10:06:52;13.70;;;13.20;;
22068;SDS011;13887;57.196;-2.100;2023-06-22T10:09:23;13.63;;;13.13;;
22068;SDS011;13887;57.196;-2.100;2023-06-22T10:12:00;13.10;;;12.70;;
22068;SDS011;13887;57.196;-2.100;2023-06-22T10:14:34;13.53;;;13.03;;
22068;SDS011;13887;57.196;-2.100;2023-06-22T10:17:02;13.60;;;13.10;;
22068;SDS011;13887;57.196;-2.100;2023-06-22T10:19:35;13.60;;;13.10;;
22068;SDS011;13887;57.196;-2.100;2023-06-22T10:22:05;13.10;;;12.70;;
22068;SDS011;13887;57.196;-2.100;2023-06-22T10:24:36;12.97;;;12.57;;
22068;SDS011;13887;57.196;-2.100;2023-06-22T10:27:15;12.83;;;12.43;;
22068;SDS011;13887;57.196;-2.100;2023-06-22T10:29:44;12.60;;;12.20;;
22068;SDS011;13887;57.196;-2.100;2023-06-22T10:32:12;12.83;;;12.43;;
22068;SDS011;13887;57.196;-2.100;2023-06-22T10:34:44;12.30;;;11.90;;
22068;SDS011;13887;57.196;-2.100;2023-06-22T10:37:19;12.60;;;12.20;;
22068;SDS011;13887;57.196;-2.100;2023-06-22T10:39:46;12.43;;;12.03;;
22068;SDS011;13887;57.196;-2.100;2023-06-22T10:42:16;12.50;;;12.10;;
22068;SDS011;13887;57.196;-2.100;2023-06-22T10:44:49;12.70;;;12.30;;
22068;SDS011;13887;57.196;-2.100;2023-06-22T10:47:22;12.57;;;12.17;;
22068;SDS011;13887;57.196;-2.100;2023-06-22T10:49:52;13.00;;;12.60;;
22068;SDS011;13887;57.196;-2.100;2023-06-22T10:52:20;12.67;;;12.27;;
22068;SDS011;13887;57.196;-2.100;2023-06-22T10:54:49;12.90;;;12.50;;
22068;SDS011;13887;57.196;-2.100;2023-06-22T10:57:19;12.97;;;12.57;;
22068;SDS011;13887;57.196;-2.100;2023-06-22T10:59:49;12.67;;;12.27;;
22068;SDS011;13887;57.196;-2.100;2023-06-22T11:02:19;12.67;;;12.27;;
22068;SDS011;13887;57.196;-2.100;2023-06-22T11:04:49;12.90;;;12.50;;
22068;SDS011;13887;57.196;-2.100;2023-06-22T11:07:19;12.83;;;12.43;;
22068;SDS011;13887;57.196;-2.100;2023-06-22T11:09:47;12.70;;;12.30;;
22068;SDS011;13887;57.196;-2.100;2023-06-22T11:12:19;13.00;;;12.60;;
22068;SDS011;13887;57.196;-2.100;2023-06-22T11:14:49;13.37;;;12.87;;
22068;SDS011;13887;57.196;-2.100;2023-06-22T11:17:21;13.00;;;12.60;;
22068;SDS011;13887;57.196;-2.100;2023-06-22T11:19:51;12.67;;;12.27;;
22068;SDS011;13887;57.196;-2.100;2023-06-22T11:22:26;12.80;;;12.40;;
22068;SDS011;13887;57.196;-2.100;2023-06-22T11:24:55;12.77;;;12.37;;
22068;SDS011;13887;57.196;-2.100;2023-06-22T11:27:32;13.23;;;12.73;;
22068;SDS011;13887;57.196;-2.100;2023-06-22T11:30:05;13.40;;;12.90;;
22068;SDS011;13887;57.196;-2.100;2023-06-22T11:32:34;12.90;;;12.50;;
22068;SDS011;13887;57.196;-2.100;2023-06-22T11:35:02;12.87;;;12.47;;
22068;SDS011;13887;57.196;-2.100;2023-06-22T11:37:33;12.80;;;12.40;;
22068;SDS011;13887;57.196;-2.100;2023-06-22T11:40:02;13.33;;;12.83;;
22068;SDS011;13887;57.196;-2.100;2023-06-22T11:42:39;12.97;;;12.57;;
22068;SDS011;13887;57.196;-2.100;2023-06-22T11:45:17;13.13;;;12.73;;
22068;SDS011;13887;57.196;-2.100;2023-06-22T11:47:49;13.07;;;12.67;;
22068;SDS011;13887;57.196;-2.100;2023-06-22T11:50:19;13.10;;;12.70;;
22068;SDS011;13887;57.196;-2.100;2023-06-22T11:52:53;13.00;;;12.60;;
22068;SDS011;13887;57.196;-2.100;2023-06-22T11:55:25;13.40;;;12.90;;
22068;SDS011;13887;57.196;-2.100;2023-06-22T11:57:56;13.93;;;13.43;;
22068;SDS011;13887;57.196;-2.100;2023-06-22T12:00:30;12.70;;;12.30;;
22068;SDS011;13887;57.196;-2.100;2023-06-22T12:03:07;12.97;;;12.57;;
22068;SDS011;13887;57.196;-2.100;2023-06-22T12:05:36;13.70;;;13.20;;
22068;SDS011;13887;57.196;-2.100;2023-06-22T12:08:13;13.50;;;13.00;;
22068;SDS011;13887;57.196;-2.100;2023-06-22T12:10:46;13.43;;;12.93;;
22068;SDS011;13887;57.196;-2.100;2023-06-22T12:13:17;13.13;;;12.73;;
22068;SDS011;13887;57.196;-2.100;2023-06-22T12:15:47;12.97;;;12.57;;
22068;SDS011;13887;57.196;-2.100;2023-06-22T12:18:18;13.10;;;12.70;;
22068;SDS011;13887;57.196;-2.100;2023-06-22T12:20:47;12.93;;;12.53;;
22068;SDS011;13887;57.196;-2.100;2023-06-22T12:23:15;13.40;;;12.90;;
22068;SDS011;13887;57.196;-2.100;2023-06-22T12:25:45;13.30;;;12.80;;
22068;SDS011;13887;57.196;-2.100;2023-06-22T12:28:15;13.10;;;12.70;;
22068;SDS011;13887;57.196;-2.100;2023-06-22T12:30:46;13.47;;;12.97;;
22068;SDS011;13887;57.196;-2.100;2023-06-22T12:33:20;13.37;;;12.87;;
22068;SDS011;13887;57.196;-2.100;2023-06-22T12:35:50;13.33;;;12.83;;
22068;SDS011;13887;57.196;-2.100;2023-06-22T12:38:17;13.20;;;12.80;;
22068;SDS011;13887;57.196;-2.100;2023-06-22T12:40:47;13.60;;;13.10;;
22068;SDS011;13887;57.196;-2.100;2023-06-22T12:43:18;13.77;;;13.27;;
22068;SDS011;13887;57.196;-2.100;2023-06-22T12:45:47;13.50;;;13.00;;
22068;SDS011;13887;57.196;-2.100;2023-06-22T12:48:21;12.80;;;12.40;;
22068;SDS011;13887;57.196;-2.100;2023-06-22T12:50:55;14.10;;;13.60;;
22068;SDS011;13887;57.196;-2.100;2023-06-22T12:53:22;13.83;;;13.33;;
22068;SDS011;13887;57.196;-2.100;2023-06-22T12:55:55;13.93;;;13.43;;
22068;SDS011;13887;57.196;-2.100;2023-06-22T12:58:29;13.80;;;13.30;;
22068;SDS011;13887;57.196;-2.100;2023-06-22T13:00:58;13.23;;;12.83;;
22068;SDS011;13887;57.196;-2.100;2023-06-22T13:03:26;13.50;;;13.00;;
22068;SDS011;13887;57.196;-2.100;2023-06-22T13:05:56;13.60;;;13.10;;
22068;SDS011;13887;57.196;-2.100;2023-06-22T13:08:30;13.00;;;12.60;;
22068;SDS011;13887;57.196;-2.100;2023-06-22T13:11:18;13.00;;;12.60;;
22068;SDS011;13887;57.196;-2.100;2023-06-22T13:13:51;13.47;;;12.97;;
22068;SDS011;13887;57.196;-2.100;2023-06-22T13:16:18;13.90;;;13.40;;
22068;SDS011;13887;57.196;-2.100;2023-06-22T13:18:55;13.67;;;13.17;;
22068;SDS011;13887;57.196;-2.100;2023-06-22T13:21:25;12.87;;;12.47;;
22068;SDS011;13887;57.196;-2.100;2023-06-22T13:23:54;13.70;;;13.20;;
22068;SDS011;13887;57.196;-2.100;2023-06-22T13:26:26;13.60;;;13.10;;
22068;SDS011;13887;57.196;-2.100;2023-06-22T13:29:02;13.03;;;12.63;;
22068;SDS011;13887;57.196;-2.100;2023-06-22T13:31:32;13.30;;;12.90;;
22068;SDS011;13887;57.196;-2.100;2023-06-22T13:34:02;13.70;;;13.20;;
22068;SDS011;13887;57.196;-2.100;2023-06-22T13:36:32;13.63;;;13.13;;
22068;SDS011;13887;57.196;-2.100;2023-06-22T13:39:04;13.30;;;12.80;;
22068;SDS011;13887;57.196;-2.100;2023-06-22T13:41:34;13.10;;;12.70;;
22068;SDS011;13887;57.196;-2.100;2023-06-22T13:44:03;13.23;;;12.83;;
22068;SDS011;13887;57.196;-2.100;2023-06-22T13:46:42;13.00;;;12.60;;
22068;SDS011;13887;57.196;-2.100;2023-06-22T13:49:10;12.77;;;12.37;;
22068;SDS011;13887;57.196;-2.100;2023-06-22T13:51:40;12.80;;;12.40;;
22068;SDS011;13887;57.196;-2.100;2023-06-22T13:54:10;13.20;;;12.80;;
22068;SDS011;13887;57.196;-2.100;2023-06-22T13:56:55;13.17;;;12.77;;
22068;SDS011;13887;57.196;-2.100;2023-06-22T13:59:23;13.30;;;12.80;;
22068;SDS011;13887;57.196;-2.100;2023-06-22T14:01:53;13.17;;;12.77;;
22068;SDS011;13887;57.196;-2.100;2023-06-22T14:04:23;12.67;;;12.27;;
22068;SDS011;13887;57.196;-2.100;2023-06-22T14:06:51;13.33;;;12.93;;
22068;SDS011;13887;57.196;-2.100;2023-06-22T14:09:28;13.20;;;12.80;;
22068;SDS011;13887;57.196;-2.100;2023-06-22T14:11:56;12.80;;;12.40;;
22068;SDS011;13887;57.196;-2.100;2023-06-22T14:14:24;12.90;;;12.50;;
22068;SDS011;13887;57.196;-2.100;2023-06-22T14:16:54;12.83;;;12.43;;
22068;SDS011;13887;57.196;-2.100;2023-06-22T14:19:26;12.70;;;12.30;;
22068;SDS011;13887;57.196;-2.100;2023-06-22T14:21:54;12.47;;;12.07;;
22068;SDS011;13887;57.196;-2.100;2023-06-22T14:24:25;12.57;;;12.17;;
22068;SDS011;13887;57.196;-2.100;2023-06-22T14:26:56;12.87;;;12.47;;
22068;SDS011;13887;57.196;-2.100;2023-06-22T14:29:32;13.00;;;12.60;;
22068;SDS011;13887;57.196;-2.100;2023-06-22T14:32:05;12.97;;;12.57;;
22068;SDS011;13887;57.196;-2.100;2023-06-22T14:34:33;13.20;;;12.80;;